createdAt,value
2022-09-04T00:02:36.073Z,100729.50
2022-09-04T00:05:20.502Z,100724.53
2022-09-04T00:08:39.844Z,100729.28
2022-09-04T00:11:32.793Z,100726.34
2022-09-04T00:14:07.012Z,100729.41
2022-09-04T00:17:02.021Z,100725.47
2022-09-04T00:19:43.289Z,100721.91
2022-09-04T00:22:26.473Z,100714.94
2022-09-04T00:25:11.415Z,100713.66
2022-09-04T00:27:45.721Z,100725.94
2022-09-04T00:30:22.475Z,100727.50
2022-09-04T00:33:01.541Z,100735.84
2022-09-04T00:35:33.731Z,100732.53
2022-09-04T00:38:48.845Z,100731.91
2022-09-04T00:41:22.820Z,100727.97
2022-09-04T00:44:09.135Z,100739.03
2022-09-04T00:46:55.152Z,100737.56
2022-09-04T00:49:36.649Z,100737.56
2022-09-04T00:52:07.656Z,100735.91
2022-09-04T00:55:01.726Z,100731.44
2022-09-04T00:57:58.871Z,100728.59
2022-09-04T01:00:28.511Z,100723.84
2022-09-04T01:03:02.521Z,100726.69
2022-09-04T01:05:58.175Z,100736.66
2022-09-04T01:08:45.635Z,100729.88
2022-09-04T01:11:43.256Z,100741.50
2022-09-04T01:14:55.852Z,100740.56
2022-09-04T01:17:30.254Z,100746.53
2022-09-04T01:20:08.546Z,100751.47
2022-09-04T01:23:33.204Z,100754.13
2022-09-04T01:26:04.020Z,100746.63
2022-09-04T01:28:50.777Z,100751.69
2022-09-04T01:31:44.865Z,100751.13
2022-09-04T01:34:25.919Z,100754.50
2022-09-04T01:37:10.297Z,100756.44
2022-09-04T01:39:40.674Z,100752.97
2022-09-04T01:42:14.464Z,100757.34
2022-09-04T01:44:43.509Z,100754.03
2022-09-04T01:47:26.711Z,100761.38
2022-09-04T01:50:07.688Z,100765.03
2022-09-04T01:52:59.088Z,100764.03
2022-09-04T01:55:48.103Z,100767.31
2022-09-04T01:58:28.358Z,100777.13
2022-09-04T02:01:05.851Z,100776.94
2022-09-04T02:03:47.886Z,100786.09
2022-09-04T02:06:44.175Z,100793.25
2022-09-04T02:09:24.883Z,100788.09
2022-09-04T02:12:11.234Z,100794.78
2022-09-04T02:15:06.762Z,100798.44
2022-09-04T02:17:56.127Z,100797.78
2022-09-04T02:20:30.511Z,100798.78
2022-09-04T02:23:45.449Z,100789.63
2022-09-04T02:26:42.928Z,100790.00
2022-09-04T02:29:33.250Z,100796.50
2022-09-04T02:32:28.828Z,100792.00
2022-09-04T02:35:07.973Z,100792.38
2022-09-04T02:37:45.069Z,100789.72
2022-09-04T02:40:37.670Z,100788.53
2022-09-04T02:43:21.349Z,100795.31
2022-09-04T02:46:31.437Z,100793.41
2022-09-04T02:49:30.144Z,100794.97
2022-09-04T02:52:36.280Z,100797.09
2022-09-04T02:55:32.575Z,100801.09
2022-09-04T02:58:28.051Z,100795.78
2022-09-04T03:01:03.025Z,100796.34
2022-09-04T03:03:40.753Z,100799.34
2022-09-04T03:06:41.751Z,100790.94
2022-09-04T03:09:30.787Z,100795.91
2022-09-04T03:12:11.097Z,100788.41
2022-09-04T03:14:52.563Z,100792.50
2022-09-04T03:17:47.174Z,100794.50
2022-09-04T03:20:30.744Z,100791.31
2022-09-04T03:23:21.338Z,100799.38
2022-09-04T03:26:16.868Z,100794.53
2022-09-04T03:29:01.004Z,100786.19
2022-09-04T03:31:44.491Z,100783.72
2022-09-04T03:34:15.465Z,100786.56
2022-09-04T03:36:43.719Z,100787.38
2022-09-04T03:39:18.518Z,100786.75
2022-09-04T03:42:05.226Z,100784.09
2022-09-04T03:44:53.146Z,100784.09
2022-09-04T03:47:36.016Z,100780.44
2022-09-04T03:50:18.492Z,100778.97
2022-09-04T03:52:55.996Z,100779.31
2022-09-04T03:55:35.910Z,100776.41
2022-09-04T03:58:38.199Z,100777.78
2022-09-04T04:01:30.902Z,100775.47
2022-09-04T04:04:26.825Z,100772.50
2022-09-04T04:07:07.792Z,100768.38
2022-09-04T04:09:44.855Z,100783.84
2022-09-04T04:12:27.511Z,100783.56
2022-09-04T04:15:22.236Z,100789.44
2022-09-04T04:18:17.045Z,100787.50
2022-09-04T04:21:06.359Z,100790.69
2022-09-04T04:24:12.445Z,100793.91
2022-09-04T04:26:50.653Z,100805.50
2022-09-04T04:29:43.284Z,100803.03
2022-09-04T04:32:50.233Z,100810.91
2022-09-04T04:35:49.681Z,100814.56
2022-09-04T04:38:52.408Z,100821.63
2022-09-04T04:41:30.901Z,100826.88
2022-09-04T04:44:16.890Z,100827.22
2022-09-04T04:46:45.847Z,100829.53
2022-09-04T04:49:23.248Z,100838.00
2022-09-04T04:52:19.053Z,100832.91
2022-09-04T04:54:53.106Z,100842.91
2022-09-04T04:57:49.156Z,100838.06
2022-09-04T05:00:31.471Z,100850.97
2022-09-04T05:03:23.559Z,100853.09
2022-09-04T05:06:09.573Z,100854.56
2022-09-04T05:08:40.873Z,100855.03
2022-09-04T05:11:34.569Z,100856.63
2022-09-04T05:14:24.550Z,100871.47
2022-09-04T05:17:14.291Z,100869.09
2022-09-04T05:20:12.301Z,100873.88
2022-09-04T05:22:51.380Z,100873.50
2022-09-04T05:25:47.179Z,100876.47
2022-09-04T05:28:48.127Z,100879.06
2022-09-04T05:31:31.704Z,100880.34
2022-09-04T05:34:04.638Z,100880.59
2022-09-04T05:37:03.433Z,100880.97
2022-09-04T05:39:40.278Z,100884.66
2022-09-04T05:42:35.325Z,100889.03
2022-09-04T05:45:24.730Z,100893.63
2022-09-04T05:48:22.699Z,100881.34
2022-09-04T05:51:03.187Z,100893.25
2022-09-04T05:54:00.876Z,100894.25
2022-09-04T05:56:52.473Z,100910.31
2022-09-04T05:59:44.118Z,100916.91
2022-09-04T06:02:51.212Z,100919.75
2022-09-04T06:05:33.975Z,100919.75
2022-09-04T06:08:08.220Z,100927.00
2022-09-04T06:10:57.948Z,100921.91
2022-09-04T06:13:41.005Z,100925.06
2022-09-04T06:16:22.319Z,100916.78
2022-09-04T06:18:56.586Z,100926.38
2022-09-04T06:21:42.803Z,100932.03
2022-09-04T06:24:29.200Z,100929.63
2022-09-04T06:27:14.688Z,100931.03
2022-09-04T06:29:57.568Z,100934.59
2022-09-04T06:32:53.482Z,100929.44
2022-09-04T06:35:50.068Z,100927.56
2022-09-04T06:38:30.267Z,100923.59
2022-09-04T06:41:13.350Z,100916.94
2022-09-04T06:44:18.840Z,100917.97
2022-09-04T06:47:29.297Z,100917.06
2022-09-04T06:50:09.461Z,100915.03
2022-09-04T06:53:06.780Z,100908.81
2022-09-04T06:55:50.661Z,100909.84
2022-09-04T06:58:18.952Z,100917.84
2022-09-04T07:01:11.779Z,100907.50
2022-09-04T07:03:51.017Z,100905.22
2022-09-04T07:06:37.675Z,100914.66
2022-09-04T07:09:16.339Z,100918.13
2022-09-04T07:12:06.372Z,100919.97
2022-09-04T07:14:46.511Z,100915.38
2022-09-04T07:17:39.456Z,100922.19
2022-09-04T07:20:27.002Z,100921.34
2022-09-04T07:23:02.740Z,100928.13
2022-09-04T07:25:37.090Z,100926.69
2022-09-04T07:28:17.027Z,100926.84
2022-09-04T07:31:01.192Z,100934.41
2022-09-04T07:33:46.042Z,100937.06
2022-09-04T07:36:37.224Z,100940.13
2022-09-04T07:39:39.243Z,100940.63
2022-09-04T07:42:13.307Z,100937.47
2022-09-04T07:44:52.135Z,100940.59
2022-09-04T07:47:35.412Z,100943.41
2022-09-04T07:50:22.148Z,100947.22
2022-09-04T07:53:15.967Z,100943.56
2022-09-04T07:55:51.801Z,100939.63
2022-09-04T07:58:41.230Z,100948.59
2022-09-04T08:01:35.957Z,100953.66
2022-09-04T08:04:25.168Z,100963.34
2022-09-04T08:07:02.842Z,100956.84
2022-09-04T08:09:55.257Z,100966.19
2022-09-04T08:12:32.656Z,100970.25
2022-09-04T08:15:23.321Z,100970.28
2022-09-04T08:17:51.706Z,100985.56
2022-09-04T08:20:55.149Z,100987.91
2022-09-04T08:23:35.544Z,100988.19
2022-09-04T08:26:14.276Z,100988.59
2022-09-04T08:28:57.595Z,100990.59
2022-09-04T08:31:44.491Z,100985.31
2022-09-04T08:34:43.620Z,100988.16
2022-09-04T08:37:34.652Z,100990.91
2022-09-04T08:40:25.406Z,101002.03
2022-09-04T08:43:15.418Z,100989.63
2022-09-04T08:45:49.756Z,100990.28
2022-09-04T08:48:42.607Z,100998.72
2022-09-04T08:51:36.385Z,100992.22
2022-09-04T08:54:23.351Z,101000.81
2022-09-04T08:57:03.646Z,100997.78
2022-09-04T08:59:53.381Z,100993.47
2022-09-04T09:02:34.271Z,100992.38
2022-09-04T09:05:10.071Z,100991.03
2022-09-04T09:08:06.823Z,100988.53
2022-09-04T09:11:12.079Z,100987.88
2022-09-04T09:14:01.926Z,100992.94
2022-09-04T09:16:33.496Z,100987.28
2022-09-04T09:19:25.123Z,100989.69
2022-09-04T09:22:14.740Z,100989.09
2022-09-04T09:25:01.776Z,100990.59
2022-09-04T09:27:51.708Z,100997.41
2022-09-04T09:30:23.898Z,100999.47
2022-09-04T09:33:17.014Z,101001.53
2022-09-04T09:36:30.123Z,101000.31
2022-09-04T09:38:58.270Z,100996.91
2022-09-04T09:42:02.839Z,100997.75
2022-09-04T09:45:06.284Z,100995.25
2022-09-04T09:47:59.239Z,101003.31
2022-09-04T09:50:51.673Z,100997.44
2022-09-04T09:53:47.231Z,100989.38
2022-09-04T09:56:53.693Z,100988.50
2022-09-04T09:59:30.970Z,100991.25
2022-09-04T10:02:17.022Z,100993.97
2022-09-04T10:05:00.084Z,100988.56
2022-09-04T10:07:40.235Z,100988.56
2022-09-04T10:10:47.678Z,100990.66
2022-09-04T10:13:45.461Z,100995.19
2022-09-04T10:16:45.569Z,100986.66
2022-09-04T10:19:39.382Z,100990.66
2022-09-04T10:22:35.336Z,100982.91
2022-09-04T10:25:28.625Z,100984.69
2022-09-04T10:27:59.831Z,100987.84
2022-09-04T10:30:57.079Z,100981.69
2022-09-04T10:33:55.715Z,100979.00
2022-09-04T10:36:55.303Z,100980.63
2022-09-04T10:39:53.338Z,100976.44
2022-09-04T10:42:47.883Z,100973.06
2022-09-04T10:45:30.729Z,100973.06
2022-09-04T10:48:20.238Z,100969.31
2022-09-04T10:51:12.406Z,100970.91
2022-09-04T10:54:08.055Z,100970.78
2022-09-04T10:56:51.410Z,100970.44
2022-09-04T10:59:52.193Z,100973.53
2022-09-04T11:02:41.366Z,100970.53
2022-09-04T11:05:37.882Z,100970.53
2022-09-04T11:08:42.487Z,100963.56
2022-09-04T11:11:26.838Z,100965.19
2022-09-04T11:14:28.934Z,100962.47
2022-09-04T11:17:28.525Z,100963.97
2022-09-04T11:20:34.590Z,100955.66
2022-09-04T11:23:40.352Z,100961.84
2022-09-04T11:26:48.709Z,100954.53
2022-09-04T11:29:30.468Z,100951.97
2022-09-04T11:32:35.746Z,100945.09
2022-09-04T11:35:15.214Z,100955.72
2022-09-04T11:38:10.618Z,100952.75
2022-09-04T11:40:57.655Z,100954.13
2022-09-04T11:44:03.806Z,100952.25
2022-09-04T11:46:40.853Z,100946.59
2022-09-04T11:49:35.488Z,100944.72
2022-09-04T11:52:12.367Z,100950.41
2022-09-04T11:55:18.855Z,100946.13
2022-09-04T11:57:55.915Z,100939.91
2022-09-04T12:00:24.331Z,100940.75
2022-09-04T12:03:10.683Z,100938.78
2022-09-04T12:06:02.434Z,100944.56
2022-09-04T12:08:46.513Z,100948.00
2022-09-04T12:11:39.589Z,100940.03
2022-09-04T12:14:15.130Z,100942.56
2022-09-04T12:17:21.407Z,100946.59
2022-09-04T12:20:08.219Z,100942.34
2022-09-04T12:22:55.015Z,100937.53
2022-09-04T12:25:49.716Z,100938.53
2022-09-04T12:29:06.546Z,100935.81
2022-09-04T12:31:51.214Z,100923.34
2022-09-04T12:34:19.757Z,100928.59
2022-09-04T12:36:52.136Z,100933.97
2022-09-04T12:39:50.950Z,100934.00
2022-09-04T12:42:45.274Z,100929.53
2022-09-04T12:45:36.548Z,100926.34
2022-09-04T12:48:19.647Z,100920.47
2022-09-04T12:50:47.840Z,100916.22
2022-09-04T12:53:32.810Z,100916.94
2022-09-04T12:56:15.824Z,100921.06
2022-09-04T12:58:55.879Z,100922.94
2022-09-04T13:01:36.353Z,100914.34
2022-09-04T13:04:04.616Z,100917.53
2022-09-04T13:06:49.215Z,100921.25
2022-09-04T13:09:36.147Z,100916.75
2022-09-04T13:12:53.537Z,100920.91
2022-09-04T13:15:53.687Z,100919.59
2022-09-04T13:18:24.639Z,100917.81
2022-09-04T13:21:13.959Z,100922.16
2022-09-04T13:24:01.061Z,100920.53
2022-09-04T13:26:36.402Z,100914.97
2022-09-04T13:29:23.257Z,100918.81
2022-09-04T13:32:19.414Z,100913.34
2022-09-04T13:35:19.786Z,100908.88
2022-09-04T13:38:10.955Z,100908.28
2022-09-04T13:40:55.663Z,100909.03
2022-09-04T13:43:35.617Z,100911.09
2022-09-04T13:46:10.845Z,100912.00
2022-09-04T13:48:59.896Z,100909.22
2022-09-04T13:51:43.249Z,100912.53
2022-09-04T13:54:31.446Z,100916.84
2022-09-04T13:57:27.890Z,100913.50
2022-09-04T14:00:03.769Z,100917.28
2022-09-04T14:02:36.588Z,100913.13
2022-09-04T14:05:20.513Z,100923.50
2022-09-04T14:07:57.133Z,100914.38
2022-09-04T14:10:46.544Z,100919.59
2022-09-04T14:13:37.994Z,100915.97
2022-09-04T14:16:09.775Z,100916.84
2022-09-04T14:18:55.848Z,100920.66
2022-09-04T14:22:02.521Z,100913.13
2022-09-04T14:24:56.319Z,100916.34
2022-09-04T14:27:53.404Z,100915.72
2022-09-04T14:30:23.059Z,100929.75
2022-09-04T14:33:07.469Z,100922.06
2022-09-04T14:35:54.125Z,100924.03
2022-09-04T14:39:18.853Z,100924.19
2022-09-04T14:42:13.791Z,100921.09
2022-09-04T14:45:01.713Z,100920.00
2022-09-04T14:47:47.447Z,100922.63
2022-09-04T14:50:20.396Z,100921.13
2022-09-04T14:52:53.825Z,100921.72
2022-09-04T14:56:05.372Z,100921.75
2022-09-04T14:58:52.267Z,100915.53
2022-09-04T15:01:23.582Z,100922.09
2022-09-04T15:04:13.358Z,100919.50
2022-09-04T15:07:07.934Z,100918.00
2022-09-04T15:09:41.089Z,100921.75
2022-09-04T15:12:38.655Z,100922.34
2022-09-04T15:15:31.693Z,100916.69
2022-09-04T15:18:16.063Z,100915.88
2022-09-04T15:21:04.308Z,100918.91
2022-09-04T15:23:45.031Z,100911.31
2022-09-04T15:26:31.918Z,100922.66
2022-09-04T15:29:27.208Z,100924.75
2022-09-04T15:32:09.415Z,100926.97
2022-09-04T15:34:42.957Z,100920.06
2022-09-04T15:37:24.773Z,100918.53
2022-09-04T15:40:04.994Z,100924.50
2022-09-04T15:42:39.901Z,100920.22
2022-09-04T15:45:19.713Z,100916.81
2022-09-04T15:48:22.164Z,100923.13
2022-09-04T15:51:27.982Z,100924.16
2022-09-04T15:54:11.859Z,100931.13
2022-09-04T15:56:52.016Z,100924.06
2022-09-04T15:59:29.719Z,100925.09
2022-09-04T16:02:19.761Z,100917.81
2022-09-04T16:05:02.217Z,100928.81
2022-09-04T16:07:49.579Z,100934.63
2022-09-04T16:10:28.575Z,100931.00
2022-09-04T16:13:01.653Z,100931.84
2022-09-04T16:15:32.546Z,100934.66
2022-09-04T16:18:10.678Z,100939.06
2022-09-04T16:21:04.950Z,100938.13
2022-09-04T16:23:38.379Z,100940.69
2022-09-04T16:26:17.929Z,100940.31
2022-09-04T16:28:55.931Z,100940.78
2022-09-04T16:31:37.203Z,100945.41
2022-09-04T16:34:17.302Z,100942.97
2022-09-04T16:37:01.959Z,100936.03
2022-09-04T16:39:59.042Z,100934.41
2022-09-04T16:42:41.343Z,100929.84
2022-09-04T16:45:27.507Z,100940.00
2022-09-04T16:47:59.152Z,100936.34
2022-09-04T16:51:40.362Z,100931.19
2022-09-04T16:54:32.529Z,100931.25
2022-09-04T16:57:18.657Z,100934.16
2022-09-04T16:59:58.766Z,100931.53
2022-09-04T17:02:50.902Z,100932.09
2022-09-04T17:05:40.061Z,100926.63
2022-09-04T17:08:08.455Z,100928.34
2022-09-04T17:11:08.787Z,100936.09
2022-09-04T17:14:08.449Z,100930.34
2022-09-04T17:16:52.811Z,100937.41
2022-09-04T17:19:22.073Z,100940.59
2022-09-04T17:26:39.790Z,100929.53
2022-09-04T17:29:08.804Z,100941.72
2022-09-04T17:29:16.212Z,100941.84
2022-09-04T17:31:48.690Z,100941.00
2022-09-04T17:40:16.422Z,100946.63
2022-09-04T17:40:50.144Z,100943.63
2022-09-04T17:41:38.175Z,100946.56
2022-09-04T17:44:02.359Z,100947.69
2022-09-04T17:46:39.032Z,100950.59
2022-09-04T17:49:33.247Z,100953.09
2022-09-04T17:52:08.851Z,100951.69
2022-09-04T17:54:49.102Z,100955.00
2022-09-04T17:57:46.363Z,100958.75
2022-09-04T18:00:24.024Z,100965.53
2022-09-04T18:03:16.296Z,100963.09
2022-09-04T18:05:53.735Z,100965.53
2022-09-04T18:08:30.249Z,100966.75
2022-09-04T18:11:09.173Z,100977.66
2022-09-04T18:13:52.111Z,100982.78
2022-09-04T18:17:11.746Z,100979.88
2022-09-04T18:19:48.864Z,100991.19
2022-09-04T18:22:38.438Z,100994.44
2022-09-04T18:25:40.927Z,101004.13
2022-09-04T18:28:12.837Z,101006.75
2022-09-04T18:37:06.289Z,101007.75
2022-09-04T18:37:19.201Z,101018.81
2022-09-04T18:37:47.265Z,101021.22
2022-09-04T18:43:40.011Z,101023.84
2022-09-04T18:50:31.107Z,101018.28
2022-09-04T18:50:33.211Z,101046.53
2022-09-04T18:50:39.646Z,101032.19
2022-09-04T18:52:20.063Z,101043.41
2022-09-04T18:54:57.781Z,101048.06
2022-09-04T18:57:33.753Z,101051.91
2022-09-04T19:00:10.375Z,101056.78
2022-09-04T19:02:50.756Z,101053.88
2022-09-04T19:05:24.572Z,101058.63
2022-09-04T19:08:01.500Z,101051.19
2022-09-04T19:10:35.960Z,101051.31
2022-09-04T19:13:24.332Z,101055.34
2022-09-04T19:15:59.286Z,101055.75
2022-09-04T19:18:33.463Z,101056.13
2022-09-04T19:21:10.702Z,101057.53
2022-09-04T19:23:59.044Z,101065.28
2022-09-04T19:26:46.582Z,101066.88
2022-09-04T19:29:46.360Z,101070.56
2022-09-04T19:32:20.391Z,101074.22
2022-09-04T19:35:15.886Z,101076.06
2022-09-04T19:45:02.325Z,101081.41
2022-09-04T19:46:00.183Z,101087.59
2022-09-04T19:46:11.593Z,101087.81
2022-09-04T19:47:27.644Z,101100.94
2022-09-04T19:53:31.986Z,101092.13
2022-09-04T19:53:37.349Z,101098.25
2022-09-04T19:56:24.774Z,101093.13
2022-09-04T19:59:25.959Z,101101.78
2022-09-04T20:02:03.070Z,101103.78
2022-09-04T20:04:41.100Z,101109.88
2022-09-04T20:07:32.098Z,101111.28
2022-09-04T20:10:27.081Z,101116.97
2022-09-04T20:13:18.467Z,101119.38
2022-09-04T20:16:21.486Z,101119.31
2022-09-04T20:19:16.738Z,101128.69
2022-09-04T20:22:05.016Z,101136.88
2022-09-04T20:25:11.353Z,101127.22
2022-09-04T20:27:47.480Z,101133.75
2022-09-04T20:30:24.995Z,101133.56
2022-09-04T20:32:58.661Z,101136.03
2022-09-04T20:35:49.036Z,101139.69
2022-09-04T20:38:30.369Z,101132.28
2022-09-04T20:41:18.686Z,101138.81
2022-09-04T20:43:53.306Z,101136.34
2022-09-04T20:52:42.143Z,101135.50
2022-09-04T20:52:54.738Z,101142.28
2022-09-04T20:52:58.059Z,101139.63
2022-09-04T20:55:36.335Z,101140.91
2022-09-04T21:03:05.399Z,101148.06
2022-09-04T21:03:20.862Z,101154.88
2022-09-04T21:04:11.420Z,101150.88
2022-09-04T21:06:56.880Z,101157.81
2022-09-04T21:09:39.036Z,101166.53
2022-09-04T21:12:28.092Z,101191.03
2022-09-04T21:15:10.661Z,101190.22
2022-09-04T21:17:41.694Z,101186.50
2022-09-04T21:20:32.000Z,101194.53
2022-09-04T21:23:17.678Z,101194.81
2022-09-04T21:26:05.192Z,101196.72
2022-09-04T21:28:54.277Z,101210.09
2022-09-04T21:31:44.397Z,101208.25
2022-09-04T21:34:16.155Z,101212.66
2022-09-04T21:37:13.851Z,101213.94
2022-09-04T21:39:42.600Z,101224.41
2022-09-04T21:42:33.661Z,101229.16
2022-09-04T21:45:19.905Z,101235.13
2022-09-04T21:48:17.824Z,101241.38
2022-09-04T21:51:28.345Z,101244.44
2022-09-04T21:55:42.532Z,101244.34
2022-09-04T22:02:31.069Z,101243.94
2022-09-04T22:02:36.669Z,101245.16
2022-09-04T22:04:08.320Z,101243.50
2022-09-04T22:10:01.868Z,101242.69
2022-09-04T22:13:29.417Z,101232.84
2022-09-04T22:13:41.778Z,101224.03
2022-09-04T22:16:13.491Z,101228.09
2022-09-04T22:19:40.088Z,101236.44
2022-09-04T22:22:26.784Z,101249.78
2022-09-04T22:24:57.674Z,101255.13
2022-09-04T22:28:07.411Z,101255.97
2022-09-04T22:30:44.891Z,101251.94
2022-09-04T22:34:14.370Z,101251.69
2022-09-04T22:37:01.548Z,101258.59
2022-09-04T22:40:09.423Z,101254.63
2022-09-04T22:42:43.522Z,101263.81
2022-09-04T22:45:49.160Z,101262.34
2022-09-04T22:48:28.495Z,101259.97
2022-09-04T22:51:03.671Z,101259.13
2022-09-04T22:53:45.863Z,101259.78
2022-09-04T22:56:28.980Z,101254.00
2022-09-04T22:59:34.837Z,101261.19
2022-09-04T23:02:18.401Z,101267.47
2022-09-04T23:04:59.223Z,101270.66
2022-09-04T23:12:15.542Z,101264.53
2022-09-04T23:13:59.758Z,101268.53
2022-09-04T23:14:06.842Z,101271.78
2022-09-04T23:16:49.311Z,101270.66
2022-09-04T23:26:31.132Z,101270.22
2022-09-04T23:26:36.538Z,101278.13
2022-09-04T23:26:42.858Z,101282.63
2022-09-04T23:29:07.011Z,101286.66
2022-09-04T23:32:07.166Z,101282.50
2022-09-04T23:34:40.720Z,101278.56
2022-09-04T23:37:35.619Z,101291.59
2022-09-04T23:40:28.549Z,101291.66
2022-09-04T23:42:56.633Z,101292.00
2022-09-04T23:46:00.945Z,101291.19
2022-09-04T23:48:54.792Z,101299.81
2022-09-04T23:51:42.012Z,101292.38
2022-09-04T23:54:41.835Z,101290.25
2022-09-04T23:57:44.115Z,101286.78
